sensor_id;sensor_type;location;lat;lon;timestamp;P1;durP1;ratioP1;P2;durP2;ratioP2
15159;SDS011;7680;48.800;9.680;2023-01-20T00:00:30;13.57;;;12.13;;
15159;SDS011;7680;48.800;9.680;2023-01-20T00:03:03;15.33;;;13.80;;
15159;SDS011;7680;48.800;9.680;2023-01-20T00:05:36;15.87;;;14.17;;
15159;SDS011;7680;48.800;9.680;2023-01-20T00:08:09;15.10;;;13.60;;
15159;SDS011;7680;48.800;9.680;2023-01-20T00:10:42;13.80;;;12.50;;
15159;SDS011;7680;48.800;9.680;2023-01-20T00:13:15;14.10;;;12.70;;
15159;SDS011;7680;48.800;9.680;2023-01-20T00:15:49;14.00;;;12.60;;
15159;SDS011;7680;48.800;9.680;2023-01-20T00:18:22;13.87;;;12.47;;
15159;SDS011;7680;48.800;9.680;2023-01-20T00:20:55;14.77;;;13.33;;
15159;SDS011;7680;48.800;9.680;2023-01-20T00:23:33;12.33;;;11.10;;
15159;SDS011;7680;48.800;9.680;2023-01-20T00:26:08;14.47;;;13.00;;
15159;SDS011;7680;48.800;9.680;2023-01-20T00:28:44;13.47;;;12.23;;
15159;SDS011;7680;48.800;9.680;2023-01-20T00:31:19;16.67;;;14.10;;
15159;SDS011;7680;48.800;9.680;2023-01-20T00:33:55;14.77;;;13.23;;
15159;SDS011;7680;48.800;9.680;2023-01-20T00:36:30;13.90;;;12.47;;
15159;SDS011;7680;48.800;9.680;2023-01-20T00:39:04;17.20;;;15.50;;
15159;SDS011;7680;48.800;9.680;2023-01-20T00:41:37;14.40;;;13.10;;
15159;SDS011;7680;48.800;9.680;2023-01-20T00:44:10;13.83;;;12.40;;
15159;SDS011;7680;48.800;9.680;2023-01-20T00:46:45;14.60;;;13.00;;
15159;SDS011;7680;48.800;9.680;2023-01-20T00:49:18;15.37;;;13.13;;
15159;SDS011;7680;48.800;9.680;2023-01-20T00:51:51;13.77;;;12.37;;
15159;SDS011;7680;48.800;9.680;2023-01-20T00:54:24;14.37;;;12.90;;
15159;SDS011;7680;48.800;9.680;2023-01-20T00:56:57;14.43;;;13.10;;
15159;SDS011;7680;48.800;9.680;2023-01-20T00:59:30;15.10;;;12.83;;
15159;SDS011;7680;48.800;9.680;2023-01-20T01:02:04;14.50;;;13.00;;
15159;SDS011;7680;48.800;9.680;2023-01-20T01:04:37;14.53;;;12.97;;
15159;SDS011;7680;48.800;9.680;2023-01-20T01:07:11;14.83;;;13.30;;
15159;SDS011;7680;48.800;9.680;2023-01-20T01:09:43;15.63;;;13.73;;
15159;SDS011;7680;48.800;9.680;2023-01-20T01:12:16;15.70;;;14.13;;
15159;SDS011;7680;48.800;9.680;2023-01-20T01:14:49;15.90;;;14.07;;
15159;SDS011;7680;48.800;9.680;2023-01-20T01:17:24;14.87;;;13.47;;
15159;SDS011;7680;48.800;9.680;2023-01-20T01:19:57;14.00;;;12.57;;
15159;SDS011;7680;48.800;9.680;2023-01-20T01:22:31;15.90;;;14.30;;
15159;SDS011;7680;48.800;9.680;2023-01-20T01:25:04;15.77;;;14.17;;
15159;SDS011;7680;48.800;9.680;2023-01-20T01:27:38;16.23;;;14.73;;
15159;SDS011;7680;48.800;9.680;2023-01-20T01:30:11;16.13;;;14.13;;
15159;SDS011;7680;48.800;9.680;2023-01-20T01:32:47;16.43;;;13.93;;
15159;SDS011;7680;48.800;9.680;2023-01-20T01:35:20;15.17;;;13.67;;
15159;SDS011;7680;48.800;9.680;2023-01-20T01:37:53;17.13;;;15.53;;
15159;SDS011;7680;48.800;9.680;2023-01-20T01:40:26;16.40;;;14.90;;
15159;SDS011;7680;48.800;9.680;2023-01-20T01:42:59;16.20;;;14.57;;
15159;SDS011;7680;48.800;9.680;2023-01-20T01:45:32;16.00;;;14.23;;
15159;SDS011;7680;48.800;9.680;2023-01-20T01:48:07;16.07;;;14.40;;
15159;SDS011;7680;48.800;9.680;2023-01-20T01:50:42;15.73;;;14.23;;
15159;SDS011;7680;48.800;9.680;2023-01-20T01:53:18;15.73;;;13.50;;
15159;SDS011;7680;48.800;9.680;2023-01-20T01:55:57;16.03;;;14.43;;
15159;SDS011;7680;48.800;9.680;2023-01-20T01:58:33;17.90;;;14.57;;
15159;SDS011;7680;48.800;9.680;2023-01-20T02:01:09;15.33;;;13.73;;
15159;SDS011;7680;48.800;9.680;2023-01-20T02:03:46;16.87;;;15.27;;
15159;SDS011;7680;48.800;9.680;2023-01-20T02:06:39;17.00;;;15.20;;
15159;SDS011;7680;48.800;9.680;2023-01-20T02:09:15;16.53;;;14.77;;
15159;SDS011;7680;48.800;9.680;2023-01-20T02:11:49;17.13;;;15.47;;
15159;SDS011;7680;48.800;9.680;2023-01-20T02:14:28;17.43;;;15.63;;
15159;SDS011;7680;48.800;9.680;2023-01-20T02:17:07;17.37;;;15.70;;
15159;SDS011;7680;48.800;9.680;2023-01-20T02:19:58;17.47;;;15.73;;
15159;SDS011;7680;48.800;9.680;2023-01-20T02:22:54;16.50;;;14.90;;
15159;SDS011;7680;48.800;9.680;2023-01-20T02:25:37;18.00;;;16.20;;
15159;SDS011;7680;48.800;9.680;2023-01-20T02:28:43;18.07;;;16.27;;
15159;SDS011;7680;48.800;9.680;2023-01-20T02:31:55;17.57;;;15.77;;
15159;SDS011;7680;48.800;9.680;2023-01-20T02:34:41;17.60;;;15.80;;
15159;SDS011;7680;48.800;9.680;2023-01-20T02:37:22;16.93;;;15.17;;
15159;SDS011;7680;48.800;9.680;2023-01-20T02:40:02;18.70;;;16.70;;
15159;SDS011;7680;48.800;9.680;2023-01-20T02:42:49;20.13;;;17.70;;
15159;SDS011;7680;48.800;9.680;2023-01-20T02:45:34;18.43;;;16.63;;
15159;SDS011;7680;48.800;9.680;2023-01-20T02:48:17;19.40;;;17.57;;
15159;SDS011;7680;48.800;9.680;2023-01-20T02:50:58;19.63;;;17.63;;
15159;SDS011;7680;48.800;9.680;2023-01-20T02:53:39;20.90;;;18.70;;
15159;SDS011;7680;48.800;9.680;2023-01-20T02:56:19;20.87;;;18.73;;
15159;SDS011;7680;48.800;9.680;2023-01-20T02:58:57;20.30;;;18.17;;
15159;SDS011;7680;48.800;9.680;2023-01-20T03:01:35;19.70;;;17.70;;
15159;SDS011;7680;48.800;9.680;2023-01-20T03:04:14;21.23;;;19.17;;
15159;SDS011;7680;48.800;9.680;2023-01-20T03:06:51;21.13;;;18.97;;
15159;SDS011;7680;48.800;9.680;2023-01-20T03:09:29;20.60;;;18.37;;
15159;SDS011;7680;48.800;9.680;2023-01-20T03:12:08;20.47;;;18.33;;
15159;SDS011;7680;48.800;9.680;2023-01-20T03:14:48;19.80;;;17.80;;
15159;SDS011;7680;48.800;9.680;2023-01-20T03:17:22;20.07;;;18.03;;
15159;SDS011;7680;48.800;9.680;2023-01-20T03:19:56;20.90;;;18.80;;
15159;SDS011;7680;48.800;9.680;2023-01-20T03:22:29;20.37;;;18.20;;
15159;SDS011;7680;48.800;9.680;2023-01-20T03:25:04;20.00;;;17.93;;
15159;SDS011;7680;48.800;9.680;2023-01-20T03:27:40;20.53;;;18.37;;
15159;SDS011;7680;48.800;9.680;2023-01-20T03:30:14;20.70;;;18.10;;
15159;SDS011;7680;48.800;9.680;2023-01-20T03:32:48;20.73;;;18.63;;
15159;SDS011;7680;48.800;9.680;2023-01-20T03:35:24;21.43;;;19.13;;
15159;SDS011;7680;48.800;9.680;2023-01-20T03:37:57;21.70;;;19.43;;
15159;SDS011;7680;48.800;9.680;2023-01-20T03:40:30;20.47;;;18.47;;
15159;SDS011;7680;48.800;9.680;2023-01-20T03:43:14;21.13;;;19.03;;
15159;SDS011;7680;48.800;9.680;2023-01-20T03:45:58;22.17;;;19.87;;
15159;SDS011;7680;48.800;9.680;2023-01-20T03:48:37;21.07;;;18.90;;
15159;SDS011;7680;48.800;9.680;2023-01-20T03:51:20;20.60;;;18.43;;
15159;SDS011;7680;48.800;9.680;2023-01-20T03:53:59;20.97;;;18.77;;
15159;SDS011;7680;48.800;9.680;2023-01-20T03:56:36;21.53;;;19.40;;
15159;SDS011;7680;48.800;9.680;2023-01-20T03:59:15;20.33;;;18.23;;
15159;SDS011;7680;48.800;9.680;2023-01-20T04:01:52;22.00;;;19.50;;
15159;SDS011;7680;48.800;9.680;2023-01-20T04:04:25;21.43;;;19.23;;
15159;SDS011;7680;48.800;9.680;2023-01-20T04:07:01;22.13;;;19.83;;
15159;SDS011;7680;48.800;9.680;2023-01-20T04:09:38;21.53;;;19.43;;
15159;SDS011;7680;48.800;9.680;2023-01-20T04:12:15;22.70;;;20.10;;
15159;SDS011;7680;48.800;9.680;2023-01-20T04:14:48;23.27;;;20.87;;
15159;SDS011;7680;48.800;9.680;2023-01-20T04:17:24;23.73;;;21.33;;
15159;SDS011;7680;48.800;9.680;2023-01-20T04:19:59;25.13;;;22.60;;
15159;SDS011;7680;48.800;9.680;2023-01-20T04:22:40;26.77;;;23.47;;
15159;SDS011;7680;48.800;9.680;2023-01-20T04:25:21;28.33;;;23.93;;
15159;SDS011;7680;48.800;9.680;2023-01-20T04:27:58;27.00;;;24.10;;
15159;SDS011;7680;48.800;9.680;2023-01-20T04:30:31;26.37;;;23.57;;
15159;SDS011;7680;48.800;9.680;2023-01-20T04:33:04;24.97;;;22.67;;
15159;SDS011;7680;48.800;9.680;2023-01-20T04:35:37;26.87;;;23.07;;
15159;SDS011;7680;48.800;9.680;2023-01-20T04:38:12;27.03;;;24.00;;
15159;SDS011;7680;48.800;9.680;2023-01-20T04:40:45;26.37;;;23.63;;
15159;SDS011;7680;48.800;9.680;2023-01-20T04:43:18;26.07;;;23.33;;
15159;SDS011;7680;48.800;9.680;2023-01-20T04:45:51;26.97;;;24.17;;
15159;SDS011;7680;48.800;9.680;2023-01-20T04:48:24;26.53;;;23.47;;
15159;SDS011;7680;48.800;9.680;2023-01-20T04:50:57;28.30;;;25.30;;
15159;SDS011;7680;48.800;9.680;2023-01-20T04:53:31;26.30;;;23.70;;
15159;SDS011;7680;48.800;9.680;2023-01-20T04:56:09;26.83;;;23.43;;
15159;SDS011;7680;48.800;9.680;2023-01-20T04:58:43;26.40;;;22.70;;
15159;SDS011;7680;48.800;9.680;2023-01-20T05:01:16;26.87;;;23.57;;
15159;SDS011;7680;48.800;9.680;2023-01-20T05:03:49;24.47;;;21.87;;
15159;SDS011;7680;48.800;9.680;2023-01-20T05:06:22;26.60;;;23.77;;
15159;SDS011;7680;48.800;9.680;2023-01-20T05:08:56;27.73;;;24.73;;
15159;SDS011;7680;48.800;9.680;2023-01-20T05:11:29;26.77;;;23.83;;
15159;SDS011;7680;48.800;9.680;2023-01-20T05:14:02;27.10;;;24.20;;
15159;SDS011;7680;48.800;9.680;2023-01-20T05:16:35;27.37;;;24.37;;
15159;SDS011;7680;48.800;9.680;2023-01-20T05:19:09;28.00;;;24.03;;
15159;SDS011;7680;48.800;9.680;2023-01-20T05:21:43;26.73;;;23.90;;
15159;SDS011;7680;48.800;9.680;2023-01-20T05:24:17;26.87;;;24.07;;
15159;SDS011;7680;48.800;9.680;2023-01-20T05:26:50;26.97;;;24.07;;
15159;SDS011;7680;48.800;9.680;2023-01-20T05:29:23;25.87;;;23.13;;
15159;SDS011;7680;48.800;9.680;2023-01-20T05:31:57;26.60;;;23.77;;
15159;SDS011;7680;48.800;9.680;2023-01-20T05:34:30;25.37;;;22.77;;
15159;SDS011;7680;48.800;9.680;2023-01-20T05:37:03;28.27;;;25.00;;
15159;SDS011;7680;48.800;9.680;2023-01-20T05:39:37;28.07;;;24.17;;
15159;SDS011;7680;48.800;9.680;2023-01-20T05:42:10;35.00;;;27.97;;
15159;SDS011;7680;48.800;9.680;2023-01-20T05:44:43;28.20;;;25.40;;
15159;SDS011;7680;48.800;9.680;2023-01-20T05:47:16;31.53;;;25.97;;
15159;SDS011;7680;48.800;9.680;2023-01-20T05:49:49;27.13;;;24.07;;
15159;SDS011;7680;48.800;9.680;2023-01-20T05:52:22;27.87;;;24.97;;
15159;SDS011;7680;48.800;9.680;2023-01-20T05:54:57;27.73;;;24.83;;
15159;SDS011;7680;48.800;9.680;2023-01-20T05:57:30;29.37;;;26.10;;
15159;SDS011;7680;48.800;9.680;2023-01-20T06:00:03;31.37;;;26.93;;
15159;SDS011;7680;48.800;9.680;2023-01-20T06:02:39;34.00;;;28.40;;
15159;SDS011;7680;48.800;9.680;2023-01-20T06:05:12;29.90;;;26.73;;
15159;SDS011;7680;48.800;9.680;2023-01-20T06:07:45;28.50;;;25.23;;
15159;SDS011;7680;48.800;9.680;2023-01-20T06:10:21;35.17;;;26.73;;
15159;SDS011;7680;48.800;9.680;2023-01-20T06:12:58;30.13;;;25.37;;
15159;SDS011;7680;48.800;9.680;2023-01-20T06:15:31;30.67;;;25.33;;
15159;SDS011;7680;48.800;9.680;2023-01-20T06:18:04;33.80;;;28.13;;
15159;SDS011;7680;48.800;9.680;2023-01-20T06:20:37;38.57;;;29.37;;
15159;SDS011;7680;48.800;9.680;2023-01-20T06:23:10;48.90;;;32.63;;
15159;SDS011;7680;48.800;9.680;2023-01-20T06:25:44;47.13;;;33.00;;
15159;SDS011;7680;48.800;9.680;2023-01-20T06:28:17;49.77;;;35.13;;
15159;SDS011;7680;48.800;9.680;2023-01-20T06:30:50;40.30;;;32.13;;
15159;SDS011;7680;48.800;9.680;2023-01-20T06:33:32;42.07;;;31.67;;
15159;SDS011;7680;48.800;9.680;2023-01-20T06:36:06;40.13;;;29.80;;
15159;SDS011;7680;48.800;9.680;2023-01-20T06:38:41;32.10;;;27.50;;
15159;SDS011;7680;48.800;9.680;2023-01-20T06:41:19;28.20;;;25.20;;
15159;SDS011;7680;48.800;9.680;2023-01-20T06:43:53;27.40;;;24.43;;
15159;SDS011;7680;48.800;9.680;2023-01-20T06:46:26;28.40;;;24.97;;
15159;SDS011;7680;48.800;9.680;2023-01-20T06:48:59;28.93;;;25.83;;
15159;SDS011;7680;48.800;9.680;2023-01-20T06:51:32;30.77;;;25.60;;
15159;SDS011;7680;48.800;9.680;2023-01-20T06:54:05;33.13;;;26.67;;
15159;SDS011;7680;48.800;9.680;2023-01-20T06:56:39;30.03;;;25.47;;
15159;SDS011;7680;48.800;9.680;2023-01-20T06:59:12;29.30;;;23.93;;
15159;SDS011;7680;48.800;9.680;2023-01-20T07:01:45;28.57;;;24.40;;
15159;SDS011;7680;48.800;9.680;2023-01-20T07:04:18;30.97;;;26.33;;
15159;SDS011;7680;48.800;9.680;2023-01-20T07:06:51;34.10;;;26.80;;
15159;SDS011;7680;48.800;9.680;2023-01-20T07:09:24;28.77;;;24.80;;
15159;SDS011;7680;48.800;9.680;2023-01-20T07:11:59;33.37;;;25.30;;
15159;SDS011;7680;48.800;9.680;2023-01-20T07:14:32;31.90;;;26.87;;
15159;SDS011;7680;48.800;9.680;2023-01-20T07:17:07;33.00;;;27.67;;
15159;SDS011;7680;48.800;9.680;2023-01-20T07:19:43;32.00;;;26.13;;
15159;SDS011;7680;48.800;9.680;2023-01-20T07:22:16;31.93;;;25.77;;
15159;SDS011;7680;48.800;9.680;2023-01-20T07:24:49;31.73;;;26.43;;
15159;SDS011;7680;48.800;9.680;2023-01-20T07:27:23;41.53;;;27.53;;
15159;SDS011;7680;48.800;9.680;2023-01-20T07:29:56;35.97;;;26.73;;
15159;SDS011;7680;48.800;9.680;2023-01-20T07:32:29;37.17;;;27.40;;
15159;SDS011;7680;48.800;9.680;2023-01-20T07:35:02;33.23;;;26.70;;
15159;SDS011;7680;48.800;9.680;2023-01-20T07:37:36;35.90;;;27.33;;
15159;SDS011;7680;48.800;9.680;2023-01-20T07:40:10;35.87;;;27.10;;
15159;SDS011;7680;48.800;9.680;2023-01-20T07:42:45;33.00;;;28.07;;
15159;SDS011;7680;48.800;9.680;2023-01-20T07:45:18;31.20;;;27.40;;
15159;SDS011;7680;48.800;9.680;2023-01-20T07:47:53;28.80;;;25.73;;
15159;SDS011;7680;48.800;9.680;2023-01-20T07:50:27;30.90;;;27.53;;
15159;SDS011;7680;48.800;9.680;2023-01-20T07:53:00;36.87;;;29.17;;
15159;SDS011;7680;48.800;9.680;2023-01-20T07:55:33;30.60;;;27.30;;
15159;SDS011;7680;48.800;9.680;2023-01-20T07:58:07;35.47;;;28.67;;
15159;SDS011;7680;48.800;9.680;2023-01-20T08:00:40;31.67;;;27.80;;
15159;SDS011;7680;48.800;9.680;2023-01-20T08:03:13;34.20;;;29.57;;
15159;SDS011;7680;48.800;9.680;2023-01-20T08:05:47;32.33;;;28.10;;
15159;SDS011;7680;48.800;9.680;2023-01-20T08:08:19;34.47;;;28.93;;
15159;SDS011;7680;48.800;9.680;2023-01-20T08:10:54;31.37;;;27.23;;
15159;SDS011;7680;48.800;9.680;2023-01-20T08:13:30;34.80;;;28.63;;
15159;SDS011;7680;48.800;9.680;2023-01-20T08:16:04;34.90;;;29.20;;
15159;SDS011;7680;48.800;9.680;2023-01-20T08:18:39;34.30;;;29.40;;
15159;SDS011;7680;48.800;9.680;2023-01-20T08:21:16;36.20;;;29.90;;
15159;SDS011;7680;48.800;9.680;2023-01-20T08:23:53;38.67;;;29.07;;
15159;SDS011;7680;48.800;9.680;2023-01-20T08:26:27;35.13;;;29.77;;
15159;SDS011;7680;48.800;9.680;2023-01-20T08:29:02;38.97;;;31.43;;
15159;SDS011;7680;48.800;9.680;2023-01-20T08:31:38;40.40;;;30.77;;
15159;SDS011;7680;48.800;9.680;2023-01-20T08:34:11;31.83;;;27.80;;
15159;SDS011;7680;48.800;9.680;2023-01-20T08:36:44;33.30;;;28.03;;
15159;SDS011;7680;48.800;9.680;2023-01-20T08:39:19;34.50;;;28.23;;
15159;SDS011;7680;48.800;9.680;2023-01-20T08:41:53;33.83;;;27.93;;
15159;SDS011;7680;48.800;9.680;2023-01-20T08:44:27;33.57;;;28.73;;
15159;SDS011;7680;48.800;9.680;2023-01-20T08:47:00;33.13;;;29.27;;
15159;SDS011;7680;48.800;9.680;2023-01-20T08:49:33;32.50;;;27.37;;
15159;SDS011;7680;48.800;9.680;2023-01-20T08:52:06;30.10;;;26.90;;
15159;SDS011;7680;48.800;9.680;2023-01-20T08:54:42;33.23;;;27.90;;
15159;SDS011;7680;48.800;9.680;2023-01-20T08:57:15;34.37;;;27.93;;
15159;SDS011;7680;48.800;9.680;2023-01-20T08:59:49;32.90;;;28.20;;
15159;SDS011;7680;48.800;9.680;2023-01-20T09:02:22;34.53;;;29.00;;
15159;SDS011;7680;48.800;9.680;2023-01-20T09:04:55;31.63;;;26.73;;
15159;SDS011;7680;48.800;9.680;2023-01-20T09:07:28;32.10;;;26.40;;
15159;SDS011;7680;48.800;9.680;2023-01-20T09:10:02;29.73;;;25.93;;
15159;SDS011;7680;48.800;9.680;2023-01-20T09:12:36;30.43;;;26.00;;
15159;SDS011;7680;48.800;9.680;2023-01-20T09:15:11;29.33;;;26.13;;
15159;SDS011;7680;48.800;9.680;2023-01-20T09:17:45;28.60;;;25.30;;
15159;SDS011;7680;48.800;9.680;2023-01-20T09:20:18;32.47;;;26.57;;
15159;SDS011;7680;48.800;9.680;2023-01-20T09:22:51;28.97;;;25.33;;
15159;SDS011;7680;48.800;9.680;2023-01-20T09:25:24;26.90;;;24.00;;
15159;SDS011;7680;48.800;9.680;2023-01-20T09:27:58;25.10;;;22.43;;
15159;SDS011;7680;48.800;9.680;2023-01-20T09:30:33;24.40;;;21.80;;
15159;SDS011;7680;48.800;9.680;2023-01-20T09:33:06;24.27;;;21.67;;
15159;SDS011;7680;48.800;9.680;2023-01-20T09:35:41;24.27;;;21.57;;
15159;SDS011;7680;48.800;9.680;2023-01-20T09:38:14;21.97;;;19.77;;
15159;SDS011;7680;48.800;9.680;2023-01-20T09:41:04;21.00;;;18.70;;
15159;SDS011;7680;48.800;9.680;2023-01-20T09:44:10;21.80;;;19.07;;
15159;SDS011;7680;48.800;9.680;2023-01-20T09:47:02;25.37;;;20.83;;
15159;SDS011;7680;48.800;9.680;2023-01-20T09:53:06;23.77;;;19.90;;
15159;SDS011;7680;48.800;9.680;2023-01-20T09:55:46;21.27;;;19.00;;
15159;SDS011;7680;48.800;9.680;2023-01-20T09:58:24;23.07;;;18.43;;
15159;SDS011;7680;48.800;9.680;2023-01-20T10:01:05;19.47;;;17.47;;
15159;SDS011;7680;48.800;9.680;2023-01-20T10:03:46;20.97;;;18.00;;
15159;SDS011;7680;48.800;9.680;2023-01-20T10:06:25;20.77;;;17.47;;
15159;SDS011;7680;48.800;9.680;2023-01-20T10:09:04;20.50;;;18.20;;
15159;SDS011;7680;48.800;9.680;2023-01-20T10:11:47;21.20;;;18.93;;
15159;SDS011;7680;48.800;9.680;2023-01-20T10:14:24;22.07;;;19.37;;
15159;SDS011;7680;48.800;9.680;2023-01-20T10:17:03;20.70;;;18.03;;
15159;SDS011;7680;48.800;9.680;2023-01-20T10:19:46;20.83;;;18.63;;
15159;SDS011;7680;48.800;9.680;2023-01-20T10:22:28;19.97;;;17.07;;
15159;SDS011;7680;48.800;9.680;2023-01-20T10:25:08;19.00;;;17.00;;
15159;SDS011;7680;48.800;9.680;2023-01-20T10:27:47;21.40;;;17.00;;
15159;SDS011;7680;48.800;9.680;2023-01-20T10:30:25;18.53;;;16.60;;
15159;SDS011;7680;48.800;9.680;2023-01-20T10:33:05;19.50;;;17.30;;
15159;SDS011;7680;48.800;9.680;2023-01-20T10:35:45;17.53;;;15.63;;
15159;SDS011;7680;48.800;9.680;2023-01-20T10:38:23;18.37;;;16.47;;
15159;SDS011;7680;48.800;9.680;2023-01-20T10:41:10;18.20;;;16.30;;
15159;SDS011;7680;48.800;9.680;2023-01-20T10:43:50;17.37;;;15.57;;
15159;SDS011;7680;48.800;9.680;2023-01-20T10:46:30;15.50;;;13.90;;
15159;SDS011;7680;48.800;9.680;2023-01-20T10:49:31;16.20;;;14.07;;
15159;SDS011;7680;48.800;9.680;2023-01-20T10:52:30;15.27;;;13.67;;
15159;SDS011;7680;48.800;9.680;2023-01-20T10:55:20;15.33;;;13.40;;
15159;SDS011;7680;48.800;9.680;2023-01-20T10:58:08;15.33;;;13.47;;
15159;SDS011;7680;48.800;9.680;2023-01-20T11:00:50;15.67;;;13.60;;
15159;SDS011;7680;48.800;9.680;2023-01-20T11:03:24;15.57;;;13.93;;
15159;SDS011;7680;48.800;9.680;2023-01-20T11:05:57;14.67;;;12.90;;
15159;SDS011;7680;48.800;9.680;2023-01-20T11:08:31;16.20;;;13.93;;
15159;SDS011;7680;48.800;9.680;2023-01-20T11:11:08;14.90;;;13.30;;
15159;SDS011;7680;48.800;9.680;2023-01-20T11:13:45;15.60;;;14.10;;
15159;SDS011;7680;48.800;9.680;2023-01-20T11:16:19;16.20;;;14.60;;
15159;SDS011;7680;48.800;9.680;2023-01-20T11:18:57;16.83;;;15.13;;
15159;SDS011;7680;48.800;9.680;2023-01-20T11:21:34;16.27;;;14.67;;
15159;SDS011;7680;48.800;9.680;2023-01-20T11:27:10;17.07;;;15.37;;
15159;SDS011;7680;48.800;9.680;2023-01-20T11:29:48;17.73;;;15.93;;
15159;SDS011;7680;48.800;9.680;2023-01-20T11:32:28;17.03;;;15.43;;
15159;SDS011;7680;48.800;9.680;2023-01-20T11:35:17;17.00;;;15.50;;
15159;SDS011;7680;48.800;9.680;2023-01-20T11:37:54;16.80;;;15.27;;
15159;SDS011;7680;48.800;9.680;2023-01-20T11:40:29;17.43;;;15.83;;
15159;SDS011;7680;48.800;9.680;2023-01-20T11:43:02;17.57;;;15.93;;
15159;SDS011;7680;48.800;9.680;2023-01-20T11:45:35;16.80;;;15.17;;
15159;SDS011;7680;48.800;9.680;2023-01-20T11:48:14;16.00;;;14.50;;
15159;SDS011;7680;48.800;9.680;2023-01-20T11:50:52;16.17;;;13.87;;
15159;SDS011;7680;48.800;9.680;2023-01-20T11:53:29;16.03;;;14.50;;
15159;SDS011;7680;48.800;9.680;2023-01-20T11:56:15;16.03;;;14.50;;
15159;SDS011;7680;48.800;9.680;2023-01-20T11:58:52;15.10;;;13.57;;
15159;SDS011;7680;48.800;9.680;2023-01-20T12:01:30;16.43;;;14.70;;
15159;SDS011;7680;48.800;9.680;2023-01-20T12:07:36;15.03;;;12.40;;
15159;SDS011;7680;48.800;9.680;2023-01-20T12:10:14;15.10;;;13.70;;
15159;SDS011;7680;48.800;9.680;2023-01-20T12:12:53;14.60;;;13.03;;
15159;SDS011;7680;48.800;9.680;2023-01-20T12:15:32;14.97;;;13.37;;
15159;SDS011;7680;48.800;9.680;2023-01-20T12:18:06;14.90;;;13.40;;
15159;SDS011;7680;48.800;9.680;2023-01-20T12:20:48;14.50;;;13.03;;
15159;SDS011;7680;48.800;9.680;2023-01-20T12:23:31;14.10;;;12.60;;
15159;SDS011;7680;48.800;9.680;2023-01-20T12:26:17;13.43;;;12.03;;
15159;SDS011;7680;48.800;9.680;2023-01-20T12:28:55;12.57;;;11.37;;
15159;SDS011;7680;48.800;9.680;2023-01-20T12:31:33;12.17;;;11.07;;
15159;SDS011;7680;48.800;9.680;2023-01-20T12:34:10;12.33;;;11.13;;
15159;SDS011;7680;48.800;9.680;2023-01-20T12:36:51;12.30;;;11.10;;
15159;SDS011;7680;48.800;9.680;2023-01-20T12:39:49;12.63;;;11.43;;
15159;SDS011;7680;48.800;9.680;2023-01-20T12:46:00;13.10;;;11.87;;
15159;SDS011;7680;48.800;9.680;2023-01-20T12:52:08;13.57;;;11.60;;
15159;SDS011;7680;48.800;9.680;2023-01-20T12:55:02;13.70;;;11.90;;
15159;SDS011;7680;48.800;9.680;2023-01-20T12:57:59;11.57;;;10.53;;
15159;SDS011;7680;48.800;9.680;2023-01-20T13:04:11;12.87;;;11.57;;
15159;SDS011;7680;48.800;9.680;2023-01-20T13:07:34;11.73;;;10.57;;
15159;SDS011;7680;48.800;9.680;2023-01-20T13:10:27;12.93;;;11.63;;
15159;SDS011;7680;48.800;9.680;2023-01-20T13:13:22;12.30;;;11.20;;
15159;SDS011;7680;48.800;9.680;2023-01-20T13:16:30;15.37;;;13.80;;
15159;SDS011;7680;48.800;9.680;2023-01-20T13:19:09;15.37;;;13.80;;
15159;SDS011;7680;48.800;9.680;2023-01-20T13:21:47;14.13;;;12.77;;
15159;SDS011;7680;48.800;9.680;2023-01-20T13:24:38;14.90;;;13.57;;
15159;SDS011;7680;48.800;9.680;2023-01-20T13:27:16;11.37;;;10.27;;
15159;SDS011;7680;48.800;9.680;2023-01-20T13:29:56;11.47;;;10.27;;
15159;SDS011;7680;48.800;9.680;2023-01-20T13:32:35;12.47;;;11.30;;
15159;SDS011;7680;48.800;9.680;2023-01-20T13:38:22;11.57;;;10.50;;
15159;SDS011;7680;48.800;9.680;2023-01-20T13:40:58;11.07;;;9.90;;
15159;SDS011;7680;48.800;9.680;2023-01-20T13:43:34;11.50;;;10.40;;
15159;SDS011;7680;48.800;9.680;2023-01-20T13:46:44;11.47;;;10.33;;
15159;SDS011;7680;48.800;9.680;2023-01-20T13:55:51;10.93;;;9.93;;
15159;SDS011;7680;48.800;9.680;2023-01-20T13:58:32;9.57;;;8.70;;
15159;SDS011;7680;48.800;9.680;2023-01-20T14:01:08;10.80;;;9.80;;
15159;SDS011;7680;48.800;9.680;2023-01-20T14:03:59;10.20;;;9.07;;
15159;SDS011;7680;48.800;9.680;2023-01-20T14:06:34;10.13;;;9.17;;
15159;SDS011;7680;48.800;9.680;2023-01-20T14:09:18;10.50;;;9.50;;
15159;SDS011;7680;48.800;9.680;2023-01-20T14:11:54;10.13;;;9.17;;
15159;SDS011;7680;48.800;9.680;2023-01-20T14:14:28;10.70;;;9.53;;
15159;SDS011;7680;48.800;9.680;2023-01-20T14:17:01;10.13;;;9.03;;
15159;SDS011;7680;48.800;9.680;2023-01-20T14:19:35;9.97;;;9.07;;
15159;SDS011;7680;48.800;9.680;2023-01-20T14:22:16;9.77;;;8.87;;
15159;SDS011;7680;48.800;9.680;2023-01-20T14:24:53;10.63;;;9.57;;
15159;SDS011;7680;48.800;9.680;2023-01-20T14:27:29;11.33;;;10.03;;
15159;SDS011;7680;48.800;9.680;2023-01-20T14:30:14;11.07;;;9.97;;
15159;SDS011;7680;48.800;9.680;2023-01-20T14:32:52;10.30;;;9.23;;
15159;SDS011;7680;48.800;9.680;2023-01-20T14:35:27;12.67;;;10.70;;
15159;SDS011;7680;48.800;9.680;2023-01-20T14:38:02;11.27;;;10.07;;
15159;SDS011;7680;48.800;9.680;2023-01-20T14:40:37;11.47;;;10.27;;
15159;SDS011;7680;48.800;9.680;2023-01-20T14:43:13;11.47;;;10.30;;
15159;SDS011;7680;48.800;9.680;2023-01-20T14:45:50;12.37;;;11.10;;
15159;SDS011;7680;48.800;9.680;2023-01-20T14:48:24;12.47;;;11.27;;
15159;SDS011;7680;48.800;9.680;2023-01-20T14:51:04;12.13;;;10.93;;
15159;SDS011;7680;48.800;9.680;2023-01-20T14:53:43;11.77;;;10.67;;
15159;SDS011;7680;48.800;9.680;2023-01-20T14:56:18;11.87;;;10.63;;
15159;SDS011;7680;48.800;9.680;2023-01-20T14:58:52;12.77;;;11.50;;
15159;SDS011;7680;48.800;9.680;2023-01-20T15:01:28;13.00;;;11.67;;
15159;SDS011;7680;48.800;9.680;2023-01-20T15:04:01;13.33;;;11.93;;
15159;SDS011;7680;48.800;9.680;2023-01-20T15:06:36;12.73;;;11.43;;
15159;SDS011;7680;48.800;9.680;2023-01-20T15:09:22;13.00;;;11.80;;
15159;SDS011;7680;48.800;9.680;2023-01-20T15:15:14;13.47;;;11.27;;
15159;SDS011;7680;48.800;9.680;2023-01-20T15:18:12;12.30;;;11.10;;
15159;SDS011;7680;48.800;9.680;2023-01-20T15:20:50;13.37;;;11.73;;
15159;SDS011;7680;48.800;9.680;2023-01-20T15:23:45;13.00;;;11.60;;
15159;SDS011;7680;48.800;9.680;2023-01-20T15:26:23;12.47;;;11.20;;
15159;SDS011;7680;48.800;9.680;2023-01-20T15:29:01;12.33;;;11.10;;
15159;SDS011;7680;48.800;9.680;2023-01-20T15:31:34;14.00;;;12.40;;
15159;SDS011;7680;48.800;9.680;2023-01-20T15:34:07;15.90;;;12.53;;
15159;SDS011;7680;48.800;9.680;2023-01-20T15:36:40;12.80;;;11.50;;
15159;SDS011;7680;48.800;9.680;2023-01-20T15:39:15;13.47;;;12.07;;
15159;SDS011;7680;48.800;9.680;2023-01-20T15:41:50;13.93;;;12.43;;
15159;SDS011;7680;48.800;9.680;2023-01-20T15:44:26;14.57;;;13.07;;
15159;SDS011;7680;48.800;9.680;2023-01-20T15:46:59;15.67;;;14.00;;
15159;SDS011;7680;48.800;9.680;2023-01-20T15:49:32;14.43;;;12.90;;
15159;SDS011;7680;48.800;9.680;2023-01-20T15:52:07;14.83;;;13.30;;
15159;SDS011;7680;48.800;9.680;2023-01-20T15:54:41;14.97;;;13.47;;
15159;SDS011;7680;48.800;9.680;2023-01-20T15:57:14;15.77;;;14.10;;
15159;SDS011;7680;48.800;9.680;2023-01-20T15:59:49;14.63;;;13.10;;
15159;SDS011;7680;48.800;9.680;2023-01-20T16:02:22;15.93;;;13.13;;
15159;SDS011;7680;48.800;9.680;2023-01-20T16:04:56;16.30;;;14.37;;
15159;SDS011;7680;48.800;9.680;2023-01-20T16:07:29;19.07;;;15.80;;